createdAt,value
2019-05-19T00:04:52.330Z,13.73
2019-05-19T00:09:44.790Z,14.10
2019-05-19T00:14:37.537Z,14.03
2019-05-19T00:19:29.973Z,12.80
2019-05-19T00:24:23.421Z,12.50
2019-05-19T00:29:15.870Z,13.10
2019-05-19T00:34:08.377Z,12.37
2019-05-19T00:39:00.271Z,12.68
2019-05-19T00:43:53.031Z,13.00
2019-05-19T00:48:45.795Z,13.45
2019-05-19T00:53:37.871Z,15.18
2019-05-19T00:58:33.335Z,13.25
2019-05-19T01:03:25.864Z,12.03
2019-05-19T01:08:18.726Z,13.43
2019-05-19T01:13:11.305Z,13.60
2019-05-19T01:18:03.881Z,14.13
2019-05-19T01:22:56.571Z,13.25
2019-05-19T01:27:48.820Z,12.58
2019-05-19T01:32:41.521Z,13.18
2019-05-19T01:37:33.801Z,13.22
2019-05-19T01:42:26.637Z,13.32
2019-05-19T01:47:19.477Z,14.25
2019-05-19T01:52:11.624Z,14.10
2019-05-19T01:57:04.145Z,16.23
2019-05-19T02:01:56.322Z,15.80
2019-05-19T02:06:48.761Z,15.78
2019-05-19T02:11:44.550Z,15.53
2019-05-19T02:16:36.966Z,15.03
2019-05-19T02:21:29.600Z,15.75
2019-05-19T02:26:22.156Z,16.62
2019-05-19T02:31:14.451Z,15.45
2019-05-19T02:36:07.193Z,17.57
2019-05-19T02:41:02.900Z,17.70
2019-05-19T02:45:58.622Z,21.57
2019-05-19T02:50:53.286Z,19.40
2019-05-19T02:55:46.282Z,22.58
2019-05-19T03:00:41.645Z,18.95
2019-05-19T03:05:33.819Z,19.62
2019-05-19T03:10:26.344Z,20.48
2019-05-19T03:15:18.769Z,18.02
2019-05-19T03:20:11.137Z,19.75
2019-05-19T03:25:03.763Z,20.60
2019-05-19T03:29:57.677Z,21.23
2019-05-19T03:34:49.983Z,25.63
2019-05-19T03:39:42.439Z,21.70
2019-05-19T03:44:34.637Z,22.55
2019-05-19T03:49:27.151Z,21.02
2019-05-19T03:54:19.401Z,22.15
2019-05-19T03:59:12.015Z,19.35
2019-05-19T04:04:04.605Z,21.75
2019-05-19T04:08:57.046Z,22.33
2019-05-19T04:13:49.434Z,26.50
2019-05-19T04:18:41.888Z,26.02
2019-05-19T04:23:34.106Z,25.43
2019-05-19T04:28:26.265Z,30.90
2019-05-19T04:33:18.655Z,29.10
2019-05-19T04:38:11.293Z,30.27
2019-05-19T04:43:04.983Z,30.60
2019-05-19T04:47:57.651Z,28.12
2019-05-19T04:52:50.063Z,27.10
2019-05-19T04:57:42.586Z,28.10
2019-05-19T05:02:34.830Z,26.55
2019-05-19T05:07:27.304Z,28.47
2019-05-19T05:12:19.969Z,26.40
2019-05-19T05:17:12.377Z,25.57
2019-05-19T05:22:05.175Z,28.77
2019-05-19T05:26:57.480Z,29.42
2019-05-19T05:31:50.393Z,33.55
2019-05-19T05:36:42.819Z,30.88
2019-05-19T05:41:35.580Z,26.52
2019-05-19T05:46:27.625Z,25.30
2019-05-19T05:51:20.326Z,21.90
2019-05-19T05:56:12.682Z,23.87
2019-05-19T06:01:05.535Z,25.15
2019-05-19T06:05:58.377Z,23.15
2019-05-19T06:10:50.926Z,19.75
2019-05-19T06:15:43.196Z,21.25
2019-05-19T06:20:35.769Z,19.73
2019-05-19T06:25:28.729Z,20.50
2019-05-19T06:30:21.205Z,20.92
2019-05-19T06:35:13.971Z,20.15
2019-05-19T06:40:08.852Z,19.37
2019-05-19T06:45:01.948Z,17.48
2019-05-19T06:49:54.100Z,14.77
2019-05-19T06:54:46.419Z,12.88
2019-05-19T06:59:39.089Z,10.88
2019-05-19T07:04:31.227Z,11.22
2019-05-19T07:09:23.454Z,10.25
2019-05-19T07:14:16.108Z,8.50
2019-05-19T07:19:08.631Z,10.72
2019-05-19T07:24:00.924Z,9.25
2019-05-19T07:28:53.433Z,9.50
2019-05-19T07:33:46.020Z,10.45
2019-05-19T07:38:38.729Z,8.50
2019-05-19T07:43:31.292Z,9.80
2019-05-19T07:48:23.849Z,9.98
2019-05-19T07:53:16.369Z,8.25
2019-05-19T07:58:08.812Z,8.23
2019-05-19T08:03:01.627Z,8.85
2019-05-19T08:07:54.233Z,8.33
2019-05-19T08:12:46.719Z,8.18
2019-05-19T08:17:39.136Z,8.00
2019-05-19T08:22:31.390Z,8.00
2019-05-19T08:27:23.755Z,7.92
2019-05-19T08:32:16.416Z,7.40
2019-05-19T08:37:09.138Z,7.72
2019-05-19T08:42:01.189Z,7.97
2019-05-19T08:46:53.995Z,9.00
2019-05-19T08:51:46.365Z,8.18
2019-05-19T08:56:39.136Z,8.88
2019-05-19T09:01:31.593Z,8.08
2019-05-19T09:06:24.256Z,7.40
2019-05-19T09:11:16.789Z,7.22
2019-05-19T09:16:09.401Z,8.10
2019-05-19T09:21:01.833Z,7.17
2019-05-19T09:25:54.192Z,7.40
2019-05-19T09:30:46.440Z,8.60
2019-05-19T09:35:38.962Z,9.30
2019-05-19T09:40:31.597Z,6.33
2019-05-19T09:45:24.330Z,7.05
2019-05-19T09:50:17.060Z,5.15
2019-05-19T09:55:09.772Z,4.67
2019-05-19T10:00:02.240Z,5.65
2019-05-19T10:04:54.631Z,5.40
2019-05-19T10:09:56.187Z,5.27
2019-05-19T10:14:48.642Z,5.13
2019-05-19T10:19:42.265Z,5.70
2019-05-19T10:24:34.825Z,5.12
2019-05-19T10:29:27.534Z,5.83
2019-05-19T10:34:23.232Z,6.53
2019-05-19T10:39:15.600Z,6.85
2019-05-19T10:44:10.367Z,6.73
2019-05-19T10:49:02.446Z,7.28
2019-05-19T10:53:54.720Z,7.95
2019-05-19T10:58:47.355Z,8.13
2019-05-19T11:03:39.717Z,8.20
2019-05-19T11:08:32.450Z,10.35
2019-05-19T11:13:25.005Z,6.83
2019-05-19T11:18:18.103Z,5.20
2019-05-19T11:23:10.395Z,4.00
2019-05-19T11:28:02.845Z,4.00
2019-05-19T11:32:55.347Z,3.40
2019-05-19T11:37:47.586Z,4.17
2019-05-19T11:42:40.680Z,3.55
2019-05-19T11:47:35.639Z,4.75
2019-05-19T11:52:28.505Z,3.60
2019-05-19T11:57:21.209Z,3.20
2019-05-19T12:02:13.614Z,5.33
2019-05-19T12:07:06.234Z,3.20
2019-05-19T12:11:58.870Z,3.55
2019-05-19T12:16:51.516Z,4.10
2019-05-19T12:21:44.043Z,2.58
2019-05-19T12:26:36.416Z,3.22
2019-05-19T12:31:28.934Z,2.58
2019-05-19T12:36:21.371Z,2.70
2019-05-19T12:41:13.870Z,3.40
2019-05-19T12:46:15.814Z,2.60
2019-05-19T12:51:00.096Z,2.70
2019-05-19T12:55:53.298Z,2.75
2019-05-19T13:00:46.098Z,3.40
2019-05-19T13:05:38.446Z,3.15
2019-05-19T13:10:30.820Z,3.65
2019-05-19T13:15:23.496Z,4.03
2019-05-19T13:20:15.889Z,5.25
2019-05-19T13:25:08.992Z,4.80
2019-05-19T13:30:01.285Z,5.00
2019-05-19T13:34:53.936Z,6.07
2019-05-19T13:39:45.952Z,5.00
2019-05-19T13:44:38.551Z,4.78
2019-05-19T13:49:30.925Z,5.15
2019-05-19T13:54:23.808Z,4.28
2019-05-19T13:59:16.412Z,4.55
2019-05-19T14:04:09.596Z,4.30
2019-05-19T14:09:02.261Z,4.67
2019-05-19T14:13:54.315Z,5.45
2019-05-19T14:18:46.924Z,5.20
2019-05-19T14:23:39.516Z,6.20
2019-05-19T14:28:32.442Z,5.33
2019-05-19T14:33:24.695Z,5.08
2019-05-19T14:38:16.960Z,5.87
2019-05-19T14:43:09.755Z,5.45
2019-05-19T14:48:02.144Z,5.20
2019-05-19T14:52:54.600Z,4.10
2019-05-19T14:57:46.989Z,4.03
2019-05-19T15:02:41.194Z,4.15
2019-05-19T15:12:19.273Z,3.90
2019-05-19T15:17:11.744Z,3.25
2019-05-19T15:22:04.423Z,3.60
2019-05-19T15:26:56.846Z,4.20
2019-05-19T15:31:49.619Z,3.67
2019-05-19T15:36:41.907Z,3.33
2019-05-19T15:41:34.301Z,3.72
2019-05-19T15:46:26.631Z,2.95
2019-05-19T15:51:28.553Z,2.20
2019-05-19T15:56:13.297Z,5.00
2019-05-19T16:01:05.898Z,2.67
2019-05-19T16:05:57.987Z,2.95
2019-05-19T16:10:50.191Z,2.70
2019-05-19T16:15:42.844Z,3.10
2019-05-19T16:20:35.163Z,3.35
2019-05-19T16:25:27.814Z,4.22
2019-05-19T16:30:19.929Z,2.98
2019-05-19T16:35:12.412Z,4.47
2019-05-19T16:40:05.742Z,4.80
2019-05-19T16:44:58.427Z,2.20
2019-05-19T16:49:50.797Z,2.80
2019-05-19T16:54:47.423Z,2.58
2019-05-19T16:59:39.976Z,2.40
2019-05-19T17:04:32.436Z,3.45
2019-05-19T17:09:24.674Z,2.92
2019-05-19T17:14:16.861Z,2.90
2019-05-19T17:19:09.181Z,2.50
2019-05-19T17:24:01.998Z,2.77
2019-05-19T17:29:00.683Z,4.10
2019-05-19T17:33:48.170Z,3.05
2019-05-19T17:38:40.634Z,2.95
2019-05-19T17:43:33.072Z,3.47
2019-05-19T17:48:26.783Z,2.67
2019-05-19T17:53:18.970Z,3.10
2019-05-19T17:58:11.383Z,4.40
2019-05-19T18:03:04.024Z,3.80
2019-05-19T18:07:56.513Z,4.17
2019-05-19T18:12:48.813Z,4.80
2019-05-19T18:17:41.933Z,3.92
2019-05-19T18:22:34.131Z,3.85
2019-05-19T18:27:26.752Z,6.28
2019-05-19T18:32:19.435Z,3.67
2019-05-19T18:37:13.564Z,5.17
2019-05-19T18:42:06.328Z,4.75
2019-05-19T18:46:58.620Z,4.60
2019-05-19T18:51:50.999Z,4.80
2019-05-19T18:56:43.708Z,6.12
2019-05-19T19:01:36.226Z,4.33
2019-05-19T19:06:31.750Z,7.25
2019-05-19T19:11:23.657Z,6.62
2019-05-19T19:16:15.900Z,4.97
2019-05-19T19:21:07.750Z,3.95
2019-05-19T19:26:00.345Z,4.47
2019-05-19T19:30:52.774Z,4.15
2019-05-19T19:35:45.263Z,6.12
2019-05-19T19:40:37.929Z,5.80
2019-05-19T19:45:30.460Z,7.10
2019-05-19T19:50:22.955Z,4.50
2019-05-19T19:55:15.096Z,4.70
2019-05-19T20:00:18.031Z,5.33
2019-05-19T20:05:01.528Z,4.83
2019-05-19T20:09:56.823Z,4.40
2019-05-19T20:14:49.477Z,4.73
2019-05-19T20:19:43.239Z,5.58
2019-05-19T20:24:35.237Z,5.12
2019-05-19T20:29:27.791Z,5.95
2019-05-19T20:34:20.371Z,6.53
2019-05-19T20:39:12.936Z,5.90
2019-05-19T20:44:05.232Z,6.92
2019-05-19T20:48:58.154Z,7.15
2019-05-19T20:53:53.130Z,5.45
2019-05-19T20:58:44.052Z,6.45
2019-05-19T21:03:36.501Z,6.10
2019-05-19T21:08:28.983Z,6.83
2019-05-19T21:13:21.523Z,6.65
2019-05-19T21:18:13.922Z,7.30
2019-05-19T21:23:06.766Z,6.90
2019-05-19T21:27:58.988Z,7.33
2019-05-19T21:32:51.857Z,8.30
2019-05-19T21:37:44.451Z,10.10
2019-05-19T21:42:37.371Z,8.43
2019-05-19T21:47:29.541Z,8.75
2019-05-19T21:52:21.987Z,9.00
2019-05-19T21:57:14.295Z,9.88
2019-05-19T22:02:07.157Z,10.80
2019-05-19T22:07:07.062Z,11.63
2019-05-19T22:11:59.553Z,13.40
2019-05-19T22:16:52.019Z,14.75
2019-05-19T22:21:44.179Z,13.25
2019-05-19T22:26:37.042Z,12.45
2019-05-19T22:31:36.461Z,13.95
2019-05-19T22:36:23.550Z,10.63
2019-05-19T22:41:15.940Z,10.15
2019-05-19T22:46:08.736Z,10.95
2019-05-19T22:51:01.349Z,10.58
2019-05-19T22:55:54.196Z,10.48
2019-05-19T23:00:46.725Z,11.65
2019-05-19T23:05:39.177Z,12.18
2019-05-19T23:10:32.103Z,14.53
2019-05-19T23:15:24.565Z,13.78
2019-05-19T23:20:18.379Z,13.70
2019-05-19T23:25:11.150Z,15.93
2019-05-19T23:30:06.614Z,15.05
2019-05-19T23:34:58.946Z,16.17
2019-05-19T23:39:54.051Z,17.85
2019-05-19T23:44:45.830Z,18.37
2019-05-19T23:49:38.507Z,18.15
2019-05-19T23:54:31.177Z,22.73
2019-05-19T23:59:23.424Z,20.35
